Time;durP1;ratioP1;P1;durP2;ratioP2;P2;SDS_P1;SDS_P2;PMS_P1;PMS_P2;Temp;Humidity;BMP_temperature;BMP_pressure;BME280_temperature;BME280_humidity;BME280_pressure;Samples;Min_cycle;Max_cycle;Signal;HPM_P1;HPM_P2
2023/04/30 00:02:13;;;;;;;5.78;4.95;;;11.90;99.90;;;;;;5013993;28;20034;-73
2023/04/30 00:04:39;;;;;;;5.95;4.90;;;11.80;99.90;;;;;;5013996;28;20026;-74
2023/04/30 00:07:05;;;;;;;6.35;4.78;;;11.70;99.90;;;;;;5013638;28;20125;-74
2023/04/30 00:09:30;;;;;;;5.93;4.85;;;11.60;99.90;;;;;;4995989;28;20030;-73
2023/04/30 00:11:56;;;;;;;6.95;5.50;;;11.60;99.90;;;;;;4996294;28;20028;-73
2023/04/30 00:14:21;;;;;;;6.88;4.80;;;11.50;99.90;;;;;;5013605;28;20037;-73
2023/04/30 00:16:47;;;;;;;6.68;5.00;;;11.40;99.90;;;;;;4996279;28;20030;-73
2023/04/30 00:19:13;;;;;;;21.73;6.35;;;11.30;99.90;;;;;;4996320;28;20066;-73
2023/04/30 00:21:38;;;;;;;8.13;4.90;;;11.20;99.90;;;;;;4996168;28;20537;-73
2023/04/30 00:24:04;;;;;;;8.00;5.50;;;11.10;99.90;;;;;;4996293;28;20053;-74
2023/04/30 00:26:30;;;;;;;6.60;5.28;;;11.10;99.90;;;;;;4996391;28;20455;-73
2023/04/30 00:28:55;;;;;;;8.27;5.38;;;11.10;99.90;;;;;;4996348;28;20032;-73
2023/04/30 00:31:21;;;;;;;7.93;5.47;;;11.00;99.90;;;;;;4996114;28;20034;-73
2023/04/30 00:33:47;;;;;;;8.32;5.75;;;11.00;99.90;;;;;;5013704;28;20034;-74
2023/04/30 00:36:12;;;;;;;8.50;6.03;;;11.00;99.90;;;;;;4996284;28;20028;-73
2023/04/30 00:38:39;;;;;;;7.78;5.88;;;10.90;99.90;;;;;;4996084;28;20057;-73
2023/04/30 00:41:04;;;;;;;7.93;6.20;;;10.90;99.90;;;;;;5013605;28;20022;-73
2023/04/30 00:43:30;;;;;;;7.35;6.00;;;10.90;99.90;;;;;;4997016;28;20121;-73
2023/04/30 00:45:57;;;;;;;6.55;5.72;;;10.80;99.90;;;;;;5017315;28;20046;-74
2023/04/30 00:48:23;;;;;;;10.25;6.07;;;10.70;99.90;;;;;;5017293;28;20062;-73
2023/04/30 00:50:49;;;;;;;7.22;5.20;;;10.70;99.90;;;;;;4999767;28;20116;-73
2023/04/30 00:53:16;;;;;;;8.32;5.80;;;10.70;99.90;;;;;;5017152;28;20446;-73
2023/04/30 00:55:43;;;;;;;8.10;5.85;;;10.60;99.90;;;;;;4999501;28;20381;-73
2023/04/30 00:58:09;;;;;;;12.13;7.50;;;10.60;99.90;;;;;;5016857;28;20025;-73
2023/04/30 01:00:35;;;;;;;8.82;6.07;;;10.60;99.90;;;;;;4999650;28;20026;-73
2023/04/30 01:03:01;;;;;;;8.88;5.93;;;10.60;99.90;;;;;;4999454;28;20029;-73
2023/04/30 01:05:26;;;;;;;9.02;6.45;;;10.50;99.90;;;;;;5017095;28;20378;-74
2023/04/30 01:07:54;;;;;;;10.60;6.38;;;10.50;99.90;;;;;;5017005;28;20030;-73
2023/04/30 01:10:25;;;;;;;11.87;7.37;;;10.60;99.90;;;;;;5017364;28;20488;-73
2023/04/30 01:13:00;;;;;;;11.02;6.82;;;10.60;99.90;;;;;;4999537;28;20029;-73
2023/04/30 01:15:44;;;;;;;8.80;6.15;;;10.60;99.90;;;;;;5016733;28;20120;-73
2023/04/30 01:18:27;;;;;;;9.80;7.10;;;10.60;99.90;;;;;;5016721;28;20104;-73
2023/04/30 01:21:04;;;;;;;15.20;8.13;;;10.60;99.90;;;;;;5016783;28;20496;-73
2023/04/30 01:24:05;;;;;;;11.48;7.43;;;10.60;99.90;;;;;;4998886;28;20051;-73
2023/04/30 01:27:08;;;;;;;11.35;7.85;;;10.60;99.90;;;;;;4998936;28;20462;-73
2023/04/30 01:29:35;;;;;;;12.02;7.82;;;10.70;99.90;;;;;;4998835;28;20466;-73
2023/04/30 01:32:02;;;;;;;13.45;8.35;;;10.70;99.90;;;;;;5016453;28;20036;-73
2023/04/30 01:34:28;;;;;;;13.30;8.30;;;10.70;99.90;;;;;;5016398;28;20026;-74
2023/04/30 01:37:28;;;;;;;14.40;8.00;;;10.70;99.90;;;;;;5016571;28;20514;-73
2023/04/30 01:40:31;;;;;;;13.45;7.97;;;10.80;99.90;;;;;;4998144;28;20064;-73
2023/04/30 01:43:03;;;;;;;12.35;7.97;;;10.80;99.90;;;;;;4998582;28;20469;-74
2023/04/30 01:45:55;;;;;;;12.30;8.10;;;10.80;99.90;;;;;;5016058;28;20050;-74
2023/04/30 01:48:31;;;;;;;13.27;7.97;;;10.80;99.90;;;;;;4998572;28;20034;-73
2023/04/30 01:51:03;;;;;;;13.30;8.45;;;10.80;99.90;;;;;;5016283;28;20021;-73
2023/04/30 01:53:41;;;;;;;11.60;7.95;;;10.80;99.90;;;;;;5016023;28;20063;-73
2023/04/30 01:56:15;;;;;;;10.47;7.90;;;10.80;99.90;;;;;;5015978;28;20026;-74
2023/04/30 01:58:41;;;;;;;12.10;7.63;;;10.80;99.90;;;;;;5016309;28;20257;-74
2023/04/30 02:01:07;;;;;;;12.13;7.97;;;10.80;99.90;;;;;;5015593;28;20121;-74
2023/04/30 02:03:32;;;;;;;11.30;8.30;;;10.80;99.90;;;;;;5016614;28;20464;-73
2023/04/30 02:05:58;;;;;;;10.80;7.50;;;10.80;99.90;;;;;;5016037;28;20038;-73
2023/04/30 02:08:24;;;;;;;10.43;7.75;;;10.90;99.90;;;;;;4997923;28;20025;-73
2023/04/30 02:10:49;;;;;;;14.02;8.15;;;10.90;99.90;;;;;;5015846;28;20030;-74
2023/04/30 02:13:16;;;;;;;14.00;8.88;;;10.90;99.90;;;;;;4999139;28;20465;-74
2023/04/30 02:15:41;;;;;;;12.93;8.45;;;10.90;99.90;;;;;;4999031;28;20022;-74
2023/04/30 02:18:07;;;;;;;11.35;7.97;;;10.90;99.90;;;;;;5016492;28;20432;-74
2023/04/30 02:20:32;;;;;;;14.70;8.27;;;10.90;99.90;;;;;;4998962;28;20026;-74
2023/04/30 02:22:58;;;;;;;14.23;8.65;;;10.80;99.90;;;;;;4998685;28;20037;-74
2023/04/30 02:25:25;;;;;;;14.80;8.38;;;10.80;99.90;;;;;;5015605;28;20030;-73
2023/04/30 02:27:50;;;;;;;11.07;8.05;;;10.80;99.90;;;;;;5015698;28;20030;-74
2023/04/30 02:30:18;;;;;;;16.08;8.88;;;10.80;99.90;;;;;;5015625;28;20032;-73
2023/04/30 02:32:44;;;;;;;12.38;9.00;;;10.80;99.90;;;;;;5015825;28;20018;-73
2023/04/30 02:35:09;;;;;;;11.95;8.35;;;10.80;99.90;;;;;;4997921;28;20029;-73
2023/04/30 02:37:35;;;;;;;13.18;8.95;;;10.80;99.90;;;;;;4997883;28;20037;-73
2023/04/30 02:40:01;;;;;;;11.55;8.43;;;10.70;99.90;;;;;;5015241;28;20033;-73
2023/04/30 02:42:26;;;;;;;14.98;8.50;;;10.70;99.90;;;;;;4997559;28;20029;-73
2023/04/30 02:44:52;;;;;;;15.43;9.15;;;10.70;99.90;;;;;;5014836;28;20038;-73
2023/04/30 02:47:17;;;;;;;12.02;8.80;;;10.70;99.90;;;;;;4997777;28;20468;-73
2023/04/30 02:49:43;;;;;;;13.00;8.40;;;10.70;99.90;;;;;;5015246;28;20363;-74
2023/04/30 02:52:09;;;;;;;11.38;8.25;;;10.70;99.90;;;;;;4997707;28;20080;-73
2023/04/30 02:54:35;;;;;;;11.98;8.63;;;10.70;99.90;;;;;;5015172;28;20034;-74
2023/04/30 02:57:00;;;;;;;12.32;8.57;;;10.70;99.90;;;;;;4997283;28;20032;-73
2023/04/30 02:59:26;;;;;;;11.38;8.00;;;10.70;99.90;;;;;;5015107;28;20025;-74
2023/04/30 03:01:51;;;;;;;10.70;7.78;;;10.70;99.90;;;;;;4997172;28;20125;-73
2023/04/30 03:04:17;;;;;;;12.48;8.48;;;10.80;99.90;;;;;;5014404;28;20026;-74
2023/04/30 03:06:43;;;;;;;11.18;7.75;;;10.80;99.90;;;;;;5013898;28;20037;-73
2023/04/30 03:09:08;;;;;;;12.27;8.65;;;10.80;99.90;;;;;;4997007;28;20065;-74
2023/04/30 03:11:36;;;;;;;13.90;7.50;;;10.80;99.90;;;;;;5014758;28;20386;-74
2023/04/30 03:14:02;;;;;;;11.88;8.65;;;10.80;99.90;;;;;;5014610;28;20033;-74
2023/04/30 03:16:29;;;;;;;10.77;8.65;;;10.80;99.90;;;;;;4996672;28;20125;-74
2023/04/30 03:18:56;;;;;;;15.40;8.55;;;10.80;99.90;;;;;;4996885;28;20034;-74
2023/04/30 03:21:21;;;;;;;11.85;9.10;;;10.80;99.90;;;;;;4996867;28;20120;-74
2023/04/30 03:23:47;;;;;;;11.02;8.07;;;10.80;99.90;;;;;;5014429;28;20152;-73
2023/04/30 03:26:13;;;;;;;11.85;8.25;;;10.80;99.90;;;;;;5014704;28;20037;-74
2023/04/30 03:28:39;;;;;;;13.38;9.20;;;10.80;99.90;;;;;;5014105;28;20112;-73
2023/04/30 03:31:04;;;;;;;10.15;7.90;;;10.80;99.90;;;;;;4996895;28;20029;-74
2023/04/30 03:33:31;;;;;;;11.80;8.30;;;10.80;99.90;;;;;;4996664;28;20114;-73
2023/04/30 03:35:57;;;;;;;11.63;7.80;;;10.70;99.90;;;;;;4997148;28;20029;-73
2023/04/30 03:38:22;;;;;;;12.05;8.38;;;10.70;99.90;;;;;;5014239;28;20105;-73
2023/04/30 03:40:48;;;;;;;12.13;7.65;;;10.70;99.90;;;;;;5014224;28;20026;-74
2023/04/30 03:43:14;;;;;;;10.98;7.57;;;10.70;99.90;;;;;;4996568;28;20032;-74
2023/04/30 03:45:39;;;;;;;10.25;7.70;;;10.70;99.90;;;;;;4996549;28;20130;-73
2023/04/30 03:48:05;;;;;;;10.93;8.25;;;10.70;99.90;;;;;;4996574;28;20116;-73
2023/04/30 03:50:31;;;;;;;15.07;8.20;;;10.70;99.90;;;;;;4996573;28;20105;-74
2023/04/30 03:52:56;;;;;;;11.27;7.72;;;10.70;99.90;;;;;;5013873;28;20026;-73
2023/04/30 03:55:22;;;;;;;11.65;7.47;;;10.70;99.90;;;;;;5013831;28;20109;-73
2023/04/30 03:57:48;;;;;;;11.02;8.57;;;10.60;99.90;;;;;;5014033;28;20114;-74
2023/04/30 04:00:14;;;;;;;11.15;8.40;;;10.60;99.90;;;;;;5014061;28;20505;-73
2023/04/30 04:02:40;;;;;;;10.95;7.75;;;10.60;99.90;;;;;;4996742;28;20113;-73
2023/04/30 04:05:06;;;;;;;11.00;8.20;;;10.60;99.90;;;;;;4996289;28;20437;-73
2023/04/30 04:07:32;;;;;;;12.18;8.70;;;10.60;99.90;;;;;;5014008;28;20033;-74
2023/04/30 04:09:58;;;;;;;12.27;8.15;;;10.60;99.90;;;;;;4996373;28;20052;-74
2023/04/30 04:12:23;;;;;;;9.88;8.00;;;10.60;99.90;;;;;;4996542;28;20097;-74
2023/04/30 04:14:49;;;;;;;10.18;8.20;;;10.70;99.90;;;;;;4996369;28;20034;-74
2023/04/30 04:17:15;;;;;;;11.98;8.05;;;10.70;99.90;;;;;;4996374;28;20417;-73
2023/04/30 04:19:40;;;;;;;12.02;8.68;;;10.70;99.90;;;;;;5016974;28;20077;-74
2023/04/30 04:22:06;;;;;;;14.07;8.50;;;10.70;99.90;;;;;;5000214;28;20120;-73
2023/04/30 04:24:32;;;;;;;14.60;8.75;;;10.80;99.90;;;;;;5018092;28;20121;-73
2023/04/30 04:26:58;;;;;;;11.32;7.78;;;10.80;99.90;;;;;;5000556;28;20025;-73
2023/04/30 04:29:24;;;;;;;11.50;8.23;;;10.90;99.90;;;;;;5000529;28;20033;-74
2023/04/30 04:31:50;;;;;;;11.90;8.40;;;10.90;99.90;;;;;;4999667;28;20022;-73
2023/04/30 04:34:16;;;;;;;11.50;8.13;;;10.90;99.90;;;;;;5000154;28;20034;-74
2023/04/30 04:36:42;;;;;;;10.93;7.78;;;11.00;99.90;;;;;;5017424;28;20026;-74
2023/04/30 04:39:07;;;;;;;11.20;8.73;;;10.90;99.90;;;;;;5017372;28;20030;-73
2023/04/30 04:41:37;;;;;;;13.25;9.00;;;11.00;99.90;;;;;;4999834;28;20030;-73
2023/04/30 04:44:03;;;;;;;15.93;8.52;;;11.00;99.90;;;;;;5016997;28;20037;-74
2023/04/30 04:46:33;;;;;;;11.50;8.73;;;11.00;99.90;;;;;;4999597;28;20092;-74
2023/04/30 04:48:59;;;;;;;12.00;8.77;;;11.10;99.90;;;;;;4999830;28;20029;-73
2023/04/30 04:51:25;;;;;;;13.77;8.70;;;11.10;99.90;;;;;;4999323;28;20122;-73
2023/04/30 04:53:51;;;;;;;11.45;8.90;;;11.10;99.90;;;;;;4999623;28;20053;-73
2023/04/30 04:56:17;;;;;;;12.05;7.93;;;11.10;99.90;;;;;;5016983;28;20060;-72
2023/04/30 04:58:43;;;;;;;14.90;8.73;;;11.20;99.90;;;;;;5017444;28;20029;-73
2023/04/30 05:01:10;;;;;;;12.00;8.57;;;11.20;99.90;;;;;;4999684;28;20030;-73
2023/04/30 05:03:35;;;;;;;11.43;9.27;;;11.30;99.90;;;;;;5017073;28;20384;-74
2023/04/30 05:06:02;;;;;;;11.20;8.27;;;11.30;99.90;;;;;;4999373;28;20026;-73
2023/04/30 05:08:28;;;;;;;10.27;8.68;;;11.40;99.90;;;;;;4999274;28;20453;-73
2023/04/30 05:10:53;;;;;;;12.98;8.93;;;11.40;99.90;;;;;;5017412;28;20040;-73
2023/04/30 05:13:19;;;;;;;12.27;8.88;;;11.50;99.90;;;;;;5016772;28;20369;-73
2023/04/30 05:15:45;;;;;;;14.85;8.98;;;11.60;99.90;;;;;;5017097;28;20030;-74
2023/04/30 05:18:11;;;;;;;11.75;8.82;;;11.70;99.90;;;;;;5017001;28;20528;-73
2023/04/30 05:20:36;;;;;;;13.57;9.57;;;11.80;99.90;;;;;;5016679;28;20358;-73
2023/04/30 05:23:02;;;;;;;15.77;10.18;;;11.80;99.90;;;;;;5016360;28;20084;-73
2023/04/30 05:25:28;;;;;;;14.68;8.60;;;11.90;99.90;;;;;;5016524;28;20030;-74
2023/04/30 05:27:55;;;;;;;13.30;8.98;;;11.90;99.90;;;;;;4998982;28;20022;-73
2023/04/30 05:30:21;;;;;;;11.70;8.27;;;12.00;99.90;;;;;;4998403;28;20030;-73
2023/04/30 05:32:49;;;;;;;14.20;9.40;;;12.10;99.90;;;;;;5016398;28;20025;-73
2023/04/30 05:35:16;;;;;;;13.48;8.90;;;12.00;99.90;;;;;;4998977;28;20130;-73
2023/04/30 05:37:41;;;;;;;12.55;8.75;;;12.10;99.90;;;;;;5016042;28;20454;-73
2023/04/30 05:40:08;;;;;;;14.77;8.43;;;12.10;99.90;;;;;;5016086;28;20061;-73
2023/04/30 05:42:34;;;;;;;11.18;8.25;;;12.20;99.90;;;;;;5015966;28;20099;-72
2023/04/30 05:45:01;;;;;;;12.02;8.40;;;12.20;99.90;;;;;;5016405;28;20413;-74
2023/04/30 05:47:26;;;;;;;10.73;8.20;;;12.20;99.90;;;;;;5016510;28;20028;-72
2023/04/30 05:49:52;;;;;;;11.57;8.68;;;12.30;99.90;;;;;;4998586;28;20030;-73
2023/04/30 05:52:18;;;;;;;14.68;9.10;;;12.30;99.90;;;;;;4998572;28;20101;-73
2023/04/30 05:54:43;;;;;;;11.38;8.50;;;12.40;99.90;;;;;;5016496;28;20034;-73
2023/04/30 05:57:09;;;;;;;12.52;9.02;;;12.50;99.90;;;;;;5016006;28;20029;-72
2023/04/30 05:59:35;;;;;;;10.77;8.30;;;12.60;99.90;;;;;;5015940;28;20470;-73
2023/04/30 06:02:00;;;;;;;11.45;8.80;;;12.60;99.90;;;;;;5016399;28;20030;-72
2023/04/30 06:04:26;;;;;;;12.35;8.38;;;12.70;99.90;;;;;;5015943;28;20029;-73
2023/04/30 06:06:52;;;;;;;12.73;9.18;;;12.60;99.90;;;;;;5016092;28;20622;-73
2023/04/30 06:09:17;;;;;;;15.23;9.23;;;12.70;99.90;;;;;;5015859;28;20025;-72
2023/04/30 06:11:44;;;;;;;12.90;8.48;;;12.80;99.90;;;;;;4998242;28;20030;-73
2023/04/30 06:14:10;;;;;;;11.07;8.48;;;12.90;99.90;;;;;;5015379;28;20390;-72
2023/04/30 06:16:36;;;;;;;11.02;8.20;;;13.10;99.90;;;;;;5015828;28;20025;-72
2023/04/30 06:19:02;;;;;;;10.63;8.38;;;13.50;99.90;;;;;;5015599;28;20026;-73
2023/04/30 06:21:28;;;;;;;10.88;8.18;;;13.90;99.90;;;;;;4993401;28;20363;-73
2023/04/30 06:23:53;;;;;;;9.70;8.10;;;14.10;99.90;;;;;;4995788;28;20041;-72
2023/04/30 06:26:19;;;;;;;10.38;7.97;;;14.20;99.90;;;;;;4994251;28;20030;-71
2023/04/30 06:28:45;;;;;;;10.18;8.00;;;14.40;99.90;;;;;;4995266;28;20072;-70
2023/04/30 06:31:11;;;;;;;11.30;8.52;;;14.70;99.90;;;;;;4995721;28;20037;-71
2023/04/30 06:33:37;;;;;;;9.90;6.95;;;14.90;99.90;;;;;;4995631;28;20026;-72
2023/04/30 06:36:03;;;;;;;9.48;6.95;;;15.10;99.90;;;;;;4978133;28;20030;-70
2023/04/30 06:38:29;;;;;;;10.85;7.45;;;15.50;99.90;;;;;;4994542;28;20426;-70
2023/04/30 06:40:54;;;;;;;6.82;5.90;;;15.30;99.90;;;;;;4993363;28;20029;-70
2023/04/30 06:43:20;;;;;;;9.27;7.10;;;15.50;99.90;;;;;;4995402;28;20034;-70
2023/04/30 06:45:46;;;;;;;8.18;6.80;;;15.90;99.90;;;;;;4993526;28;20058;-71
2023/04/30 06:48:11;;;;;;;11.45;6.72;;;15.90;98.30;;;;;;4993887;28;20029;-71
2023/04/30 06:50:43;;;;;;;8.00;6.65;;;16.20;98.10;;;;;;4977998;28;20026;-71
2023/04/30 06:53:10;;;;;;;6.88;5.90;;;16.10;96.20;;;;;;4995685;28;20454;-71
2023/04/30 06:55:36;;;;;;;9.35;7.10;;;16.30;96.50;;;;;;4995272;28;20034;-71
2023/04/30 06:58:01;;;;;;;9.00;6.78;;;16.50;96.50;;;;;;4993980;28;20030;-70
2023/04/30 07:00:27;;;;;;;9.77;7.07;;;16.80;96.00;;;;;;4995099;28;20023;-71
2023/04/30 07:02:53;;;;;;;8.77;7.00;;;17.10;94.80;;;;;;4993837;28;20057;-71
2023/04/30 07:05:18;;;;;;;11.32;7.43;;;17.10;94.10;;;;;;4993836;28;20121;-71
2023/04/30 07:07:45;;;;;;;8.90;6.78;;;16.70;93.60;;;;;;4995291;28;20072;-71
2023/04/30 07:10:11;;;;;;;8.27;6.78;;;16.40;93.50;;;;;;4995212;28;20030;-71
2023/04/30 07:12:37;;;;;;;11.18;6.72;;;16.00;94.10;;;;;;4995052;28;20023;-71
2023/04/30 07:15:03;;;;;;;10.70;6.85;;;15.90;94.90;;;;;;4994926;28;20037;-71
2023/04/30 07:17:28;;;;;;;10.30;6.60;;;15.90;95.50;;;;;;4994867;28;20101;-71
2023/04/30 07:19:54;;;;;;;7.55;6.60;;;15.70;95.30;;;;;;4993578;28;20022;-71
2023/04/30 07:22:20;;;;;;;9.13;6.82;;;15.70;94.80;;;;;;4994587;28;20030;-70
2023/04/30 07:24:45;;;;;;;8.43;6.80;;;15.80;94.90;;;;;;5010851;28;20048;-70
2023/04/30 07:27:11;;;;;;;8.25;6.30;;;15.80;95.20;;;;;;5014393;28;20466;-71
2023/04/30 07:29:37;;;;;;;9.43;6.72;;;16.10;94.40;;;;;;4996812;28;20037;-71
2023/04/30 07:32:02;;;;;;;8.40;6.55;;;16.10;93.80;;;;;;5014555;28;20029;-72
2023/04/30 07:34:28;;;;;;;9.10;6.85;;;15.90;94.40;;;;;;5014319;28;20378;-72
2023/04/30 07:36:54;;;;;;;8.13;6.75;;;15.80;95.60;;;;;;4996670;28;20355;-72
2023/04/30 07:39:20;;;;;;;8.80;6.45;;;15.60;95.30;;;;;;5014239;28;20032;-70
2023/04/30 07:41:45;;;;;;;7.10;6.18;;;15.30;95.60;;;;;;4996644;28;20064;-72
2023/04/30 07:44:11;;;;;;;9.35;7.25;;;15.40;94.70;;;;;;5014129;28;20064;-72
2023/04/30 07:46:36;;;;;;;9.82;6.95;;;15.20;95.80;;;;;;5013736;28;20461;-71
2023/04/30 07:49:03;;;;;;;9.63;6.65;;;15.10;95.90;;;;;;5014090;28;20034;-72
2023/04/30 07:51:28;;;;;;;15.88;7.63;;;14.90;96.80;;;;;;4996442;28;20113;-71
2023/04/30 07:53:54;;;;;;;8.52;5.47;;;15.00;98.00;;;;;;5013864;28;20124;-70
2023/04/30 07:56:20;;;;;;;9.90;5.82;;;14.90;93.60;;;;;;5014188;28;20093;-71
2023/04/30 07:58:46;;;;;;;5.93;4.60;;;14.80;93.20;;;;;;5014273;28;20441;-71
2023/04/30 08:01:12;;;;;;;7.20;5.15;;;14.80;92.10;;;;;;4996410;28;20462;-72
2023/04/30 08:03:37;;;;;;;7.20;5.63;;;15.00;91.10;;;;;;5013955;28;20022;-72
2023/04/30 08:06:04;;;;;;;6.07;4.93;;;15.10;90.50;;;;;;5013887;28;20030;-72
2023/04/30 08:08:30;;;;;;;8.13;5.15;;;15.30;90.50;;;;;;4998967;28;20085;-72
2023/04/30 08:10:56;;;;;;;5.88;4.70;;;15.50;89.40;;;;;;4995114;28;20034;-72
2023/04/30 08:13:21;;;;;;;5.82;4.45;;;15.70;89.00;;;;;;5014019;28;20076;-72
2023/04/30 08:15:47;;;;;;;9.25;4.90;;;15.90;87.90;;;;;;5013745;28;21710;-72
2023/04/30 08:18:12;;;;;;;13.27;5.75;;;16.00;86.30;;;;;;5012882;28;20034;-72
2023/04/30 08:20:38;;;;;;;9.27;5.57;;;15.90;86.90;;;;;;5013785;28;20034;-72
2023/04/30 08:23:04;;;;;;;11.75;4.88;;;15.70;86.70;;;;;;5015190;28;20049;-73
2023/04/30 08:25:30;;;;;;;9.48;5.03;;;15.50;88.30;;;;;;5013793;28;20073;-72
2023/04/30 08:27:56;;;;;;;9.20;5.47;;;15.60;90.10;;;;;;4995891;28;20552;-72
2023/04/30 08:30:22;;;;;;;6.90;4.85;;;15.40;86.40;;;;;;4995946;28;20121;-72
2023/04/30 08:32:48;;;;;;;8.95;5.22;;;15.30;88.00;;;;;;5013674;28;20030;-72
2023/04/30 08:35:15;;;;;;;8.98;5.20;;;15.30;89.30;;;;;;5013648;28;20030;-72
2023/04/30 08:37:41;;;;;;;7.90;5.35;;;15.40;88.80;;;;;;4995916;28;20025;-72
2023/04/30 08:40:08;;;;;;;11.10;6.72;;;15.60;86.60;;;;;;5013598;28;20492;-73
2023/04/30 08:42:36;;;;;;;7.15;5.82;;;15.40;87.70;;;;;;5013771;28;20033;-72
2023/04/30 08:45:03;;;;;;;8.63;6.00;;;15.50;88.70;;;;;;4995672;28;20050;-72
2023/04/30 08:47:30;;;;;;;8.02;5.70;;;15.60;87.20;;;;;;5014299;28;20050;-72
2023/04/30 08:49:56;;;;;;;9.82;5.97;;;15.50;88.10;;;;;;5013564;28;20389;-72
2023/04/30 08:52:23;;;;;;;11.15;6.13;;;15.30;88.40;;;;;;5013333;28;20037;-72
2023/04/30 08:54:51;;;;;;;8.32;5.70;;;15.30;89.10;;;;;;5013699;28;20057;-72
2023/04/30 08:57:17;;;;;;;8.93;6.05;;;15.10;89.60;;;;;;4995802;28;20026;-72
2023/04/30 08:59:46;;;;;;;8.35;5.80;;;15.10;90.10;;;;;;5013446;28;20040;-73
2023/04/30 09:02:12;;;;;;;11.88;5.38;;;15.00;90.30;;;;;;4995861;28;20026;-72
2023/04/30 09:04:37;;;;;;;11.70;6.18;;;15.10;90.60;;;;;;4996984;28;20042;-72
2023/04/30 09:07:03;;;;;;;8.80;5.88;;;15.10;91.40;;;;;;5017206;28;20458;-72
2023/04/30 09:09:36;;;;;;;9.48;5.60;;;15.00;90.90;;;;;;4999429;28;20509;-72
2023/04/30 09:12:17;;;;;;;10.07;7.15;;;14.90;91.70;;;;;;5016549;28;20071;-72
2023/04/30 09:15:03;;;;;;;9.48;6.50;;;14.80;92.40;;;;;;4999189;28;20037;-73
2023/04/30 09:17:29;;;;;;;9.25;6.57;;;14.80;92.60;;;;;;5015931;28;20038;-72
2023/04/30 09:20:06;;;;;;;9.40;7.20;;;14.70;93.00;;;;;;5016877;28;20026;-72
2023/04/30 09:22:31;;;;;;;10.65;6.90;;;14.80;93.10;;;;;;5016771;28;20076;-72
2023/04/30 09:24:57;;;;;;;13.82;7.10;;;14.80;93.30;;;;;;5016263;28;20038;-73
2023/04/30 09:27:23;;;;;;;12.20;7.40;;;14.90;94.30;;;;;;5016659;28;20030;-73
2023/04/30 09:29:49;;;;;;;9.98;6.97;;;15.10;93.80;;;;;;5016453;28;20425;-73
2023/04/30 09:32:15;;;;;;;8.75;7.28;;;15.30;93.50;;;;;;5016637;28;20026;-72
2023/04/30 09:34:42;;;;;;;8.52;6.43;;;15.70;92.70;;;;;;5016467;28;20037;-72
2023/04/30 09:37:08;;;;;;;10.43;6.82;;;16.10;92.00;;;;;;5016363;28;20120;-72
2023/04/30 09:39:53;;;;;;;9.52;6.13;;;16.50;91.20;;;;;;5016438;28;20532;-72
2023/04/30 09:42:19;;;;;;;6.90;6.20;;;16.70;90.60;;;;;;5016320;28;20033;-72
2023/04/30 09:44:45;;;;;;;11.73;6.45;;;17.10;89.90;;;;;;4998009;28;20030;-72
2023/04/30 09:47:15;;;;;;;8.45;5.97;;;17.60;87.30;;;;;;4998736;28;20477;-72
2023/04/30 09:49:50;;;;;;;9.40;5.80;;;18.10;86.70;;;;;;5016167;28;20025;-72
2023/04/30 09:52:16;;;;;;;9.57;6.32;;;18.70;84.80;;;;;;4998529;28;20516;-72
2023/04/30 09:54:44;;;;;;;10.02;6.70;;;18.90;81.70;;;;;;5015990;28;20041;-72
2023/04/30 09:57:12;;;;;;;8.83;5.60;;;19.00;80.70;;;;;;4998419;28;20033;-72
2023/04/30 09:59:41;;;;;;;7.07;6.00;;;19.00;81.70;;;;;;4998347;28;20272;-72
2023/04/30 10:02:08;;;;;;;9.45;6.10;;;18.90;80.70;;;;;;5015586;28;20366;-72
2023/04/30 10:04:39;;;;;;;8.65;5.82;;;18.90;80.50;;;;;;5016106;28;20145;-72
2023/04/30 10:07:09;;;;;;;6.78;6.07;;;19.30;79.70;;;;;;4998366;28;20045;-73
2023/04/30 10:09:40;;;;;;;7.80;5.78;;;19.50;78.30;;;;;;5015696;28;20029;-72
2023/04/30 10:12:15;;;;;;;12.80;5.80;;;19.40;75.00;;;;;;5016038;28;20036;-73
2023/04/30 10:14:58;;;;;;;8.82;6.45;;;19.80;76.10;;;;;;4998657;28;20041;-73
2023/04/30 10:17:29;;;;;;;7.20;5.45;;;20.60;71.20;;;;;;5015624;28;20026;-72
2023/04/30 10:20:01;;;;;;;7.30;5.95;;;20.60;71.30;;;;;;4998815;28;20374;-72
2023/04/30 10:22:29;;;;;;;8.27;5.72;;;19.70;71.20;;;;;;5015673;28;20373;-72
2023/04/30 10:24:55;;;;;;;10.23;6.50;;;19.60;71.80;;;;;;4997833;28;20030;-72
2023/04/30 10:27:20;;;;;;;8.98;5.93;;;19.90;71.00;;;;;;5015091;28;20022;-72
2023/04/30 10:29:47;;;;;;;8.05;6.15;;;20.60;69.20;;;;;;5015330;28;20472;-72
2023/04/30 10:32:13;;;;;;;8.68;6.05;;;21.00;67.40;;;;;;4998269;28;20112;-72
2023/04/30 10:35:05;;;;;;;9.70;6.05;;;20.60;66.60;;;;;;5015166;28;20038;-72
2023/04/30 10:37:39;;;;;;;8.77;5.05;;;20.00;68.80;;;;;;5015161;28;20018;-72
2023/04/30 10:40:07;;;;;;;6.60;5.07;;;20.10;65.70;;;;;;4997890;28;20093;-72
2023/04/30 10:42:34;;;;;;;;;;;19.80;68.50;;;;;;4998228;28;20422;-72
2023/04/30 10:45:04;;;;;;;7.25;5.40;;;19.80;67.80;;;;;;5014875;28;20424;-72
2023/04/30 10:47:30;;;;;;;9.35;5.50;;;20.00;69.50;;;;;;5014851;28;20489;-72
2023/04/30 10:50:03;;;;;;;7.53;5.63;;;19.70;69.00;;;;;;5014951;28;20064;-72
2023/04/30 10:52:29;;;;;;;7.53;5.63;;;20.00;67.50;;;;;;5015525;28;20022;-73
2023/04/30 10:54:55;;;;;;;9.00;5.68;;;20.10;67.00;;;;;;4997521;28;20489;-73
2023/04/30 10:57:21;;;;;;;6.38;5.07;;;20.20;65.20;;;;;;5014937;28;20029;-73
2023/04/30 10:59:50;;;;;;;9.77;5.97;;;20.10;66.50;;;;;;5014864;28;20022;-73
2023/04/30 11:02:16;;;;;;;11.02;6.15;;;20.20;66.30;;;;;;5014701;28;20100;-72
2023/04/30 11:05:10;;;;;;;7.63;5.60;;;20.10;65.80;;;;;;4997274;28;20034;-73
2023/04/30 11:07:36;;;;;;;10.30;6.15;;;19.80;65.80;;;;;;5014400;28;20613;-72
2023/04/30 11:10:03;;;;;;;6.35;5.57;;;19.40;66.40;;;;;;5014726;28;20034;-73
2023/04/30 11:12:28;;;;;;;7.25;6.10;;;19.00;66.20;;;;;;5014428;28;20126;-72
2023/04/30 11:15:04;;;;;;;8.18;7.00;;;19.10;68.20;;;;;;4997027;28;20070;-72
2023/04/30 11:17:31;;;;;;;7.70;5.93;;;19.40;68.00;;;;;;5014586;28;20025;-72
2023/04/30 11:20:00;;;;;;;8.70;6.57;;;19.90;69.00;;;;;;5014261;28;20034;-72
2023/04/30 11:22:28;;;;;;;9.67;6.00;;;20.50;64.60;;;;;;5014505;28;20049;-73
2023/04/30 11:25:08;;;;;;;7.18;6.05;;;20.60;63.90;;;;;;5014829;28;20285;-72
2023/04/30 11:27:36;;;;;;;8.30;5.53;;;20.70;63.90;;;;;;5013948;28;20099;-72
2023/04/30 11:30:04;;;;;;;12.85;6.15;;;20.40;63.60;;;;;;5014384;28;20032;-73
2023/04/30 11:32:35;;;;;;;9.17;5.40;;;20.20;61.70;;;;;;4996607;28;20026;-72
2023/04/30 11:35:05;;;;;;;7.60;6.10;;;19.60;65.00;;;;;;4997265;28;20112;-73
2023/04/30 11:37:33;;;;;;;6.68;5.20;;;19.70;65.90;;;;;;5013961;28;20470;-73
2023/04/30 11:40:05;;;;;;;6.88;6.20;;;19.80;65.20;;;;;;5013928;28;20112;-73
2023/04/30 11:42:33;;;;;;;6.30;5.70;;;19.70;63.10;;;;;;4996664;28;20432;-73
2023/04/30 11:45:19;;;;;;;9.43;5.57;;;20.10;63.70;;;;;;5013966;28;20046;-72
2023/04/30 11:47:45;;;;;;;6.32;5.53;;;20.90;62.80;;;;;;5014162;28;20370;-73
2023/04/30 11:50:16;;;;;;;9.05;6.60;;;22.00;57.50;;;;;;5014136;28;20113;-72
2023/04/30 11:52:48;;;;;;;9.00;5.97;;;21.60;57.90;;;;;;5014151;28;20109;-72
2023/04/30 11:55:15;;;;;;;6.78;5.80;;;22.10;56.40;;;;;;5014457;28;20034;-72
2023/04/30 11:57:43;;;;;;;6.18;5.45;;;21.70;56.30;;;;;;5014176;28;20105;-72
2023/04/30 12:00:13;;;;;;;9.32;6.03;;;20.70;59.10;;;;;;4996845;28;20026;-72
2023/04/30 12:02:40;;;;;;;7.20;6.03;;;19.70;60.90;;;;;;5013900;28;20030;-72
2023/04/30 12:05:13;;;;;;;7.32;5.97;;;18.80;63.40;;;;;;4996171;28;20030;-72
2023/04/30 12:07:39;;;;;;;8.88;6.32;;;18.30;65.30;;;;;;5014110;28;20029;-72
2023/04/30 12:10:05;;;;;;;9.15;6.75;;;18.00;68.10;;;;;;5013620;28;20030;-72
2023/04/30 12:12:31;;;;;;;9.18;6.82;;;17.90;68.80;;;;;;4996498;28;20420;-72
2023/04/30 12:14:57;;;;;;;10.27;7.65;;;17.80;69.80;;;;;;4996144;28;20034;-72
2023/04/30 12:17:33;;;;;;;9.23;7.78;;;17.40;71.20;;;;;;4996133;28;20022;-72
2023/04/30 12:19:59;;;;;;;14.32;7.65;;;17.20;73.10;;;;;;5013810;28;20021;-72
2023/04/30 12:22:25;;;;;;;11.65;7.93;;;17.10;74.20;;;;;;5013941;28;20535;-73
2023/04/30 12:24:51;;;;;;;11.90;7.70;;;16.80;75.30;;;;;;5013703;28;20369;-72
2023/04/30 12:27:17;;;;;;;10.48;7.70;;;17.30;75.30;;;;;;5013847;28;20034;-72
2023/04/30 12:29:47;;;;;;;10.88;7.18;;;18.80;72.50;;;;;;5013755;28;20061;-73
2023/04/30 12:32:17;;;;;;;7.95;5.93;;;20.20;67.20;;;;;;4996448;28;20498;-73
2023/04/30 12:34:43;;;;;;;7.03;5.97;;;22.10;64.30;;;;;;4995999;28;20532;-73
2023/04/30 12:37:09;;;;;;;10.00;6.93;;;22.10;59.60;;;;;;5013562;28;20062;-73
2023/04/30 12:39:35;;;;;;;7.80;6.53;;;21.60;60.30;;;;;;5014920;28;20370;-73
2023/04/30 12:42:03;;;;;;;12.02;6.85;;;20.70;62.00;;;;;;5017449;28;20029;-73
2023/04/30 12:44:28;;;;;;;7.60;6.57;;;19.80;63.20;;;;;;5017308;28;20029;-73